createdAt,value
2023-01-06T00:01:30.189Z,59.55
2023-01-06T00:04:34.341Z,57.40
2023-01-06T00:07:38.367Z,57.38
2023-01-06T00:10:42.616Z,56.63
2023-01-06T00:13:46.428Z,57.54
2023-01-06T00:16:52.087Z,56.84
2023-01-06T00:19:58.119Z,55.93
2023-01-06T00:23:03.523Z,54.40
2023-01-06T00:26:12.169Z,53.48
2023-01-06T00:29:16.579Z,53.36
2023-01-06T00:32:21.738Z,52.06
2023-01-06T00:35:25.708Z,52.78
2023-01-06T00:38:30.137Z,52.53
2023-01-06T00:41:52.364Z,54.67
2023-01-06T00:44:56.258Z,49.38
2023-01-06T00:48:02.661Z,50.72
2023-01-06T00:51:06.932Z,50.89
2023-01-06T00:54:13.693Z,48.99
2023-01-06T00:57:17.553Z,47.87
2023-01-06T01:00:22.483Z,49.70
2023-01-06T01:03:26.880Z,48.49
2023-01-06T01:06:31.023Z,48.33
2023-01-06T01:09:35.314Z,48.59
2023-01-06T01:12:39.305Z,46.19
2023-01-06T01:15:43.264Z,46.08
2023-01-06T01:18:47.557Z,44.31
2023-01-06T01:21:51.793Z,44.22
2023-01-06T01:24:55.724Z,46.32
2023-01-06T01:27:59.932Z,44.64
2023-01-06T01:31:05.015Z,44.75
2023-01-06T01:34:10.574Z,44.41
2023-01-06T01:37:14.733Z,43.57
2023-01-06T01:40:18.951Z,44.50
2023-01-06T01:43:22.985Z,45.28
2023-01-06T01:46:41.797Z,45.32
2023-01-06T01:49:51.755Z,44.62
2023-01-06T01:53:01.482Z,43.75
2023-01-06T01:56:09.614Z,45.26
2023-01-06T01:59:20.631Z,43.88
2023-01-06T02:02:25.354Z,45.33
2023-01-06T02:05:30.844Z,44.66
2023-01-06T02:08:42.952Z,45.24
2023-01-06T02:11:51.873Z,44.74
2023-01-06T02:14:55.836Z,44.38
2023-01-06T02:18:14.534Z,43.83
2023-01-06T02:21:35.294Z,45.20
2023-01-06T02:25:08.197Z,42.16
2023-01-06T02:28:22.282Z,43.05
2023-01-06T02:31:45.719Z,46.03
2023-01-06T02:35:18.453Z,46.60
2023-01-06T02:38:43.256Z,46.42
2023-01-06T02:42:26.289Z,47.32
2023-01-06T02:45:39.510Z,47.55
2023-01-06T02:48:53.538Z,47.34
2023-01-06T02:52:06.720Z,46.50
2023-01-06T02:55:33.169Z,45.89
2023-01-06T02:58:54.556Z,46.47
2023-01-06T03:02:01.564Z,45.21
2023-01-06T03:05:09.653Z,46.06
2023-01-06T03:08:25.588Z,46.12
2023-01-06T03:11:34.541Z,46.54
2023-01-06T03:14:45.438Z,47.03
2023-01-06T03:17:50.252Z,47.11
2023-01-06T03:21:00.587Z,46.06
2023-01-06T03:24:08.096Z,46.10
2023-01-06T03:27:12.613Z,46.15
2023-01-06T03:30:18.543Z,46.95
2023-01-06T03:33:30.350Z,46.12
2023-01-06T03:36:49.648Z,46.53
2023-01-06T03:40:06.616Z,45.80
2023-01-06T03:43:40.248Z,45.95
2023-01-06T03:46:54.198Z,47.20
2023-01-06T03:50:24.255Z,46.54
2023-01-06T03:53:55.550Z,45.38
2023-01-06T03:57:19.966Z,44.94
2023-01-06T04:00:29.954Z,46.32
2023-01-06T04:03:39.474Z,45.15
2023-01-06T04:06:44.576Z,46.20
2023-01-06T04:09:48.888Z,45.52
2023-01-06T04:12:53.731Z,45.58
2023-01-06T04:16:03.693Z,45.65
2023-01-06T04:19:12.521Z,46.35
2023-01-06T04:22:16.879Z,47.36
2023-01-06T04:25:21.562Z,45.88
2023-01-06T04:28:25.768Z,44.90
2023-01-06T04:31:35.402Z,44.73
2023-01-06T04:34:40.103Z,44.39
2023-01-06T04:37:44.888Z,44.92
2023-01-06T04:40:48.686Z,44.36
2023-01-06T04:43:52.622Z,45.56
2023-01-06T04:46:56.333Z,45.77
2023-01-06T04:50:00.675Z,46.06
2023-01-06T04:53:05.577Z,46.27
2023-01-06T04:56:12.601Z,46.47
2023-01-06T04:59:18.688Z,45.76
2023-01-06T05:02:22.602Z,45.06
2023-01-06T05:05:28.052Z,44.35
2023-01-06T05:08:33.579Z,44.38
2023-01-06T05:11:37.405Z,45.28
2023-01-06T05:14:41.263Z,44.63
2023-01-06T05:17:45.751Z,44.90
2023-01-06T05:20:56.481Z,45.34
2023-01-06T05:24:00.719Z,46.14
2023-01-06T05:27:05.199Z,44.83
2023-01-06T05:30:09.565Z,46.46
2023-01-06T05:33:13.676Z,45.07
2023-01-06T05:36:19.430Z,46.22
2023-01-06T05:39:24.000Z,44.57
2023-01-06T05:42:27.874Z,45.54
2023-01-06T05:45:31.830Z,44.52
2023-01-06T05:48:36.341Z,45.56
2023-01-06T05:51:40.216Z,44.56
2023-01-06T05:54:44.003Z,43.94
2023-01-06T05:57:48.418Z,44.30
2023-01-06T06:00:52.208Z,45.30
2023-01-06T06:03:57.078Z,44.32
2023-01-06T06:07:01.037Z,44.45
2023-01-06T06:10:06.183Z,44.10
2023-01-06T06:13:10.118Z,44.52
2023-01-06T06:16:17.080Z,45.13
2023-01-06T06:19:21.493Z,45.05
2023-01-06T06:22:25.590Z,44.37
2023-01-06T06:25:30.415Z,44.47
2023-01-06T06:28:37.564Z,44.14
2023-01-06T06:31:41.563Z,44.46
2023-01-06T06:34:46.569Z,45.32
2023-01-06T06:37:54.515Z,45.84
2023-01-06T06:40:58.477Z,44.68
2023-01-06T06:44:02.498Z,44.52
2023-01-06T06:47:06.478Z,46.71
2023-01-06T06:50:12.568Z,46.00
2023-01-06T06:53:16.454Z,46.22
2023-01-06T06:56:22.415Z,47.38
2023-01-06T06:59:27.008Z,47.20
2023-01-06T07:02:31.047Z,48.37
2023-01-06T07:05:35.554Z,48.46
2023-01-06T07:08:39.888Z,47.17
2023-01-06T07:11:43.892Z,47.67
2023-01-06T07:14:47.785Z,47.22
2023-01-06T07:17:51.734Z,47.51
2023-01-06T07:20:59.270Z,47.88
2023-01-06T07:24:03.385Z,48.74
2023-01-06T07:27:07.188Z,48.71
2023-01-06T07:30:16.927Z,48.78
2023-01-06T07:33:21.497Z,49.04
2023-01-06T07:36:25.513Z,48.59
2023-01-06T07:39:29.949Z,49.33
2023-01-06T07:42:33.795Z,48.74
2023-01-06T07:45:38.037Z,49.95
2023-01-06T07:48:43.007Z,50.97
2023-01-06T07:51:47.623Z,50.29
2023-01-06T07:54:51.520Z,51.51
2023-01-06T07:57:55.565Z,50.80
2023-01-06T08:01:05.577Z,50.30
2023-01-06T08:04:09.425Z,50.24
2023-01-06T08:07:14.925Z,49.76
2023-01-06T08:10:18.807Z,50.82
2023-01-06T08:13:22.648Z,50.92
2023-01-06T08:16:26.547Z,51.71
2023-01-06T08:19:30.876Z,52.44
2023-01-06T08:22:35.040Z,52.32
2023-01-06T08:25:39.228Z,52.73
2023-01-06T08:28:44.838Z,53.43
2023-01-06T08:31:49.454Z,53.36
2023-01-06T08:34:53.613Z,51.70
2023-01-06T08:37:58.037Z,50.87
2023-01-06T08:41:03.490Z,49.96
2023-01-06T08:44:08.243Z,50.56
2023-01-06T08:47:12.161Z,51.30
2023-01-06T08:50:16.569Z,51.82
2023-01-06T08:53:20.466Z,51.08
2023-01-06T08:56:27.562Z,52.20
2023-01-06T08:59:56.930Z,52.73
2023-01-06T09:03:01.288Z,54.48
2023-01-06T09:06:30.604Z,54.31
2023-01-06T09:09:35.493Z,53.72
2023-01-06T09:13:04.313Z,53.90
2023-01-06T09:19:37.172Z,54.51
2023-01-06T09:23:08.005Z,54.01
2023-01-06T09:26:12.857Z,53.29
2023-01-06T09:29:43.031Z,53.96
2023-01-06T09:32:47.556Z,54.18
2023-01-06T09:43:09.272Z,51.01
2023-01-06T09:46:21.636Z,52.73
2023-01-06T09:49:34.355Z,54.46
2023-01-06T09:52:57.274Z,53.82
2023-01-06T09:56:09.300Z,52.80
2023-01-06T09:59:35.911Z,51.94
2023-01-06T10:03:12.061Z,51.86
2023-01-06T10:07:01.781Z,52.02
2023-01-06T10:11:06.293Z,53.91
2023-01-06T10:14:40.118Z,54.38
2023-01-06T10:17:53.774Z,53.85
2023-01-06T10:21:37.550Z,52.76
2023-01-06T10:25:14.924Z,53.52
2023-01-06T10:28:42.807Z,53.44
2023-01-06T10:32:17.636Z,52.63
2023-01-06T10:35:25.390Z,51.93
2023-01-06T10:38:56.175Z,52.53
2023-01-06T10:42:56.935Z,53.09
2023-01-06T10:46:01.846Z,53.18
2023-01-06T10:49:13.687Z,52.90
2023-01-06T10:56:56.165Z,53.93
2023-01-06T11:00:26.762Z,54.19
2023-01-06T11:03:34.120Z,53.85
2023-01-06T11:07:04.883Z,54.17
2023-01-06T11:10:28.859Z,54.95
2023-01-06T11:13:39.807Z,54.83
2023-01-06T11:16:53.924Z,54.75
2023-01-06T11:20:28.237Z,54.71
2023-01-06T11:23:33.815Z,52.96
2023-01-06T11:27:17.552Z,52.40
2023-01-06T11:30:30.962Z,52.42
2023-01-06T11:33:49.230Z,54.13
2023-01-06T11:36:54.571Z,54.47
2023-01-06T11:40:11.220Z,54.94
2023-01-06T11:43:23.238Z,54.52
2023-01-06T11:46:48.030Z,54.31
2023-01-06T11:50:21.637Z,53.86
2023-01-06T11:53:27.090Z,54.39
2023-01-06T12:00:07.829Z,53.82
2023-01-06T12:03:12.337Z,53.53
2023-01-06T12:06:35.478Z,54.40
2023-01-06T12:09:46.220Z,53.88
2023-01-06T12:12:51.440Z,54.52
2023-01-06T12:16:07.932Z,53.62
2023-01-06T12:19:52.667Z,53.45
2023-01-06T12:23:12.512Z,54.07
2023-01-06T12:26:23.838Z,54.35
2023-01-06T12:29:28.817Z,53.80
2023-01-06T12:32:55.578Z,53.52
2023-01-06T12:36:19.971Z,53.57
2023-01-06T12:39:51.983Z,53.95
2023-01-06T12:43:23.710Z,54.91
2023-01-06T12:47:01.260Z,54.28
2023-01-06T12:50:49.485Z,55.14
2023-01-06T12:57:31.641Z,55.08
2023-01-06T13:01:02.267Z,55.15
2023-01-06T13:04:30.306Z,54.47
2023-01-06T13:08:03.181Z,53.93
2023-01-06T13:11:15.245Z,54.27
2023-01-06T13:14:34.644Z,54.00
2023-01-06T13:17:48.751Z,54.58
2023-01-06T13:21:13.517Z,55.76
2023-01-06T13:24:24.720Z,55.64
2023-01-06T13:27:48.297Z,55.87
2023-01-06T13:31:42.544Z,55.34
2023-01-06T13:35:13.756Z,55.01
2023-01-06T13:38:41.486Z,54.67
2023-01-06T13:41:49.974Z,54.73
2023-01-06T13:44:54.197Z,54.00
2023-01-06T13:48:01.398Z,52.42
2023-01-06T13:51:17.754Z,53.73
2023-01-06T13:54:40.379Z,53.57
2023-01-06T13:57:45.481Z,53.42
2023-01-06T14:01:07.202Z,51.93
2023-01-06T14:04:43.604Z,51.52
2023-01-06T14:07:55.076Z,52.74
2023-01-06T14:11:21.393Z,52.91
2023-01-06T14:14:29.811Z,53.75
2023-01-06T14:17:42.029Z,54.22
2023-01-06T14:20:46.048Z,54.39
2023-01-06T14:27:47.182Z,53.63
2023-01-06T14:30:52.870Z,52.81
2023-01-06T14:37:44.098Z,52.87
2023-01-06T14:41:02.150Z,52.63
2023-01-06T14:44:13.029Z,52.52
2023-01-06T14:47:35.638Z,53.08
2023-01-06T14:50:47.960Z,53.02
2023-01-06T14:53:58.938Z,54.09
2023-01-06T14:57:06.949Z,54.88
2023-01-06T15:00:28.095Z,55.11
2023-01-06T15:03:33.385Z,54.33
2023-01-06T15:06:37.615Z,53.95
2023-01-06T15:09:42.135Z,53.36
2023-01-06T15:12:56.738Z,53.29
2023-01-06T15:16:04.932Z,52.19
2023-01-06T15:19:13.519Z,51.29
2023-01-06T15:22:22.744Z,52.36
2023-01-06T15:25:30.412Z,52.00
2023-01-06T15:28:36.412Z,52.55
2023-01-06T15:31:42.214Z,53.54
2023-01-06T15:34:47.709Z,53.82
2023-01-06T15:38:00.757Z,54.64
2023-01-06T15:41:06.909Z,54.30
2023-01-06T15:44:30.811Z,54.39
2023-01-06T15:47:36.873Z,53.77
2023-01-06T15:50:41.236Z,53.95
2023-01-06T15:53:47.214Z,53.45
2023-01-06T15:56:51.881Z,53.04
2023-01-06T16:00:05.232Z,52.22
2023-01-06T16:03:24.030Z,52.57
2023-01-06T16:06:41.597Z,53.17
2023-01-06T16:09:46.106Z,54.27
2023-01-06T16:13:04.519Z,54.13
2023-01-06T16:16:17.924Z,54.25
2023-01-06T16:19:23.850Z,53.31
2023-01-06T16:22:37.046Z,51.70
2023-01-06T16:25:41.340Z,52.33
2023-01-06T16:28:50.489Z,53.21
2023-01-06T16:31:54.743Z,52.53
2023-01-06T16:35:06.041Z,53.22
2023-01-06T16:38:10.509Z,54.38
2023-01-06T16:41:18.924Z,54.14
2023-01-06T16:44:23.245Z,53.24
2023-01-06T16:47:27.633Z,53.48
2023-01-06T16:50:41.201Z,53.66
2023-01-06T16:53:46.287Z,53.41
2023-01-06T16:56:52.929Z,53.33
2023-01-06T16:59:57.280Z,53.42
2023-01-06T17:03:01.844Z,54.01
2023-01-06T17:06:21.686Z,54.60
2023-01-06T17:09:26.825Z,54.62
2023-01-06T17:12:49.735Z,53.23
2023-01-06T17:16:01.761Z,53.92
2023-01-06T17:19:22.152Z,53.11
2023-01-06T17:22:33.046Z,52.34
2023-01-06T17:25:37.569Z,51.96
2023-01-06T17:29:15.195Z,53.04
2023-01-06T17:32:24.549Z,52.70
2023-01-06T17:35:33.696Z,52.95
2023-01-06T17:38:40.419Z,52.88
2023-01-06T17:41:44.853Z,52.61
2023-01-06T17:44:56.127Z,52.05
2023-01-06T17:48:01.075Z,52.81
2023-01-06T17:51:05.608Z,52.72
2023-01-06T17:54:37.008Z,51.35
2023-01-06T17:57:45.154Z,51.33
2023-01-06T18:00:51.434Z,53.05
2023-01-06T18:03:58.846Z,53.84
2023-01-06T18:07:10.573Z,51.97
2023-01-06T18:10:20.355Z,51.23
2023-01-06T18:13:37.494Z,52.96
2023-01-06T18:16:42.188Z,53.38
2023-01-06T18:19:46.706Z,53.03
2023-01-06T18:22:51.098Z,53.26
2023-01-06T18:26:07.861Z,53.76
2023-01-06T18:29:20.449Z,53.92
2023-01-06T18:32:37.421Z,53.13
2023-01-06T18:35:43.868Z,51.82
2023-01-06T18:38:48.306Z,52.70
2023-01-06T18:42:06.121Z,52.39
2023-01-06T18:45:17.539Z,52.96
2023-01-06T18:48:33.416Z,53.13
2023-01-06T18:51:37.941Z,53.28
2023-01-06T18:54:42.393Z,54.66
2023-01-06T18:57:52.977Z,53.89
2023-01-06T19:01:00.063Z,52.29
2023-01-06T19:04:33.618Z,51.88
2023-01-06T19:07:38.000Z,51.75
2023-01-06T19:10:41.976Z,51.75
2023-01-06T19:13:47.710Z,53.43
2023-01-06T19:16:57.536Z,53.22
2023-01-06T19:20:11.632Z,53.91
2023-01-06T19:23:21.819Z,53.47
2023-01-06T19:26:33.667Z,53.81
2023-01-06T19:29:37.995Z,54.09
2023-01-06T19:32:42.129Z,53.56
2023-01-06T19:35:47.427Z,53.19
2023-01-06T19:38:51.874Z,53.47
2023-01-06T19:42:02.529Z,53.22
2023-01-06T19:45:16.806Z,53.23
2023-01-06T19:48:32.944Z,51.77
2023-01-06T19:51:37.594Z,52.33
2023-01-06T19:54:42.950Z,51.22
2023-01-06T19:58:00.908Z,52.32
2023-01-06T20:01:05.403Z,52.41
2023-01-06T20:04:39.245Z,53.49
2023-01-06T20:07:43.644Z,52.89
2023-01-06T20:10:48.047Z,53.15
2023-01-06T20:13:53.027Z,53.80
2023-01-06T20:16:57.956Z,53.79
2023-01-06T20:20:02.262Z,53.70
2023-01-06T20:23:06.983Z,53.31
2023-01-06T20:26:11.815Z,53.06
2023-01-06T20:29:16.251Z,52.13
2023-01-06T20:32:20.933Z,51.14
2023-01-06T20:35:25.396Z,51.93
2023-01-06T20:38:29.332Z,52.49
2023-01-06T20:41:33.652Z,51.99
2023-01-06T20:44:37.711Z,50.95
2023-01-06T20:47:42.719Z,50.73
2023-01-06T20:50:47.012Z,51.85
2023-01-06T20:53:51.423Z,52.12
2023-01-06T20:56:55.865Z,52.41
2023-01-06T21:00:00.225Z,53.60
2023-01-06T21:03:04.801Z,53.69
2023-01-06T21:06:09.691Z,54.45
2023-01-06T21:09:14.260Z,54.91
2023-01-06T21:12:18.794Z,55.59
2023-01-06T21:15:23.159Z,55.12
2023-01-06T21:18:27.719Z,54.39
2023-01-06T21:21:32.567Z,54.22
2023-01-06T21:24:36.959Z,53.90
2023-01-06T21:27:41.347Z,53.59
2023-01-06T21:30:47.101Z,53.44
2023-01-06T21:33:51.497Z,53.35
2023-01-06T21:36:56.046Z,53.02
2023-01-06T21:40:00.521Z,51.44
2023-01-06T21:43:11.049Z,51.12
2023-01-06T21:46:15.550Z,51.33
2023-01-06T21:49:19.970Z,51.24
2023-01-06T21:52:24.467Z,51.27
2023-01-06T21:55:29.057Z,52.71
2023-01-06T21:58:33.593Z,53.43
2023-01-06T22:01:38.043Z,53.86
2023-01-06T22:04:44.195Z,53.25
2023-01-06T22:07:53.024Z,53.75
2023-01-06T22:10:57.685Z,54.08
2023-01-06T22:14:02.367Z,53.67
2023-01-06T22:17:07.870Z,53.26
2023-01-06T22:20:14.293Z,53.74
2023-01-06T22:23:22.408Z,53.91
2023-01-06T22:26:26.952Z,53.63
2023-01-06T22:29:31.340Z,53.93
2023-01-06T22:32:47.106Z,53.51
2023-01-06T22:35:51.567Z,54.12
2023-01-06T22:38:56.180Z,53.29
2023-01-06T22:42:05.845Z,53.77
2023-01-06T22:45:11.546Z,54.37
2023-01-06T22:48:16.118Z,54.81
2023-01-06T22:51:20.619Z,55.18
2023-01-06T22:54:25.599Z,55.26
2023-01-06T22:57:30.182Z,54.42
2023-01-06T23:00:34.602Z,54.11
2023-01-06T23:03:39.448Z,54.01
2023-01-06T23:06:44.014Z,52.84
2023-01-06T23:09:48.504Z,51.83
2023-01-06T23:12:53.782Z,51.38
2023-01-06T23:16:12.189Z,50.95
2023-01-06T23:19:18.450Z,51.47
2023-01-06T23:22:22.875Z,52.15
2023-01-06T23:25:26.857Z,52.73
2023-01-06T23:28:31.046Z,52.32
2023-01-06T23:31:38.679Z,51.70
2023-01-06T23:34:42.760Z,51.53
2023-01-06T23:37:47.074Z,51.06
2023-01-06T23:40:50.630Z,51.96
2023-01-06T23:43:56.585Z,53.58
2023-01-06T23:47:00.513Z,54.69
2023-01-06T23:50:04.795Z,55.78
2023-01-06T23:53:08.818Z,54.87
2023-01-06T23:56:21.785Z,55.27
2023-01-06T23:59:25.734Z,56.04
